Time,TemperatureF,DewpointF,PressureIn,WindDirection,WindDirectionDegrees,WindSpeedMPH,WindSpeedGustMPH,Humidity,HourlyPrecipIn,Conditions,Clouds,dailyrainin,SoftwareType,DateUTC
2013-01-27 00:00:00,19.8,17.6,30.47,NNW,339,0.0,2.0,91,0.00,,---,0.00,VWS V14.01,2013-01-27 05:00:00,
2013-01-27 00:01:00,19.8,17.4,30.47,NNW,327,1.0,2.0,90,0.00,,---,0.00,VWS V14.01,2013-01-27 05:01:00,
2013-01-27 00:03:00,19.8,17.4,30.48,NNW,338,1.0,2.0,90,0.00,,---,0.00,VWS V14.01,2013-01-27 05:03:00,
2013-01-27 00:08:00,19.8,17.4,30.48,West,281,0.0,2.0,90,0.00,,---,0.00,VWS V14.01,2013-01-27 05:08:00,
2013-01-27 00:13:00,19.8,17.6,30.48,NW,319,1.0,2.0,91,0.00,,---,0.00,VWS V14.01,2013-01-27 05:13:00,
2013-01-27 00:18:00,19.7,17.2,30.47,NW,308,0.0,2.0,90,0.00,,---,0.00,VWS V14.01,2013-01-27 05:18:00,
2013-01-27 00:23:00,19.7,17.2,30.47,WNW,285,0.0,2.0,90,0.00,,---,0.00,VWS V14.01,2013-01-27 05:23:00,
2013-01-27 00:28:00,19.7,17.2,30.47,NW,312,0.0,2.0,90,0.00,,---,0.00,VWS V14.01,2013-01-27 05:28:00,
2013-01-27 00:33:00,19.7,17.2,30.47,WNW,293,1.0,2.0,90,0.00,,---,0.00,VWS V14.01,2013-01-27 05:33:00,
2013-01-27 00:39:00,19.7,17.2,30.47,NNW,340,0.0,2.0,90,0.00,,---,0.00,VWS V14.01,2013-01-27 05:39:00,
2013-01-27 00:44:00,19.7,17.2,30.48,NNW,340,0.0,2.0,90,0.00,,---,0.00,VWS V14.01,2013-01-27 05:44:00,
2013-01-27 00:49:00,19.7,17.5,30.47,NNW,340,0.0,2.0,91,0.00,,---,0.00,VWS V14.01,2013-01-27 05:49:00,
2013-01-27 00:54:00,19.6,17.4,30.47,SW,214,0.0,2.0,91,0.00,,---,0.00,VWS V14.01,2013-01-27 05:54:00,
2013-01-27 00:59:00,19.6,17.4,30.47,SW,219,0.0,2.0,91,0.00,,---,0.00,VWS V14.01,2013-01-27 05:59:00,
2013-01-27 01:04:00,19.5,17.3,30.47,SW,219,0.0,0.0,91,0.00,,---,0.00,VWS V14.01,2013-01-27 06:04:00,
2013-01-27 01:09:00,19.6,17.4,30.47,SW,219,0.0,1.0,91,0.00,,---,0.00,VWS V14.01,2013-01-27 06:09:00,
2013-01-27 01:14:00,19.5,17.3,30.47,SW,219,0.0,1.0,91,0.00,,---,0.00,VWS V14.01,2013-01-27 06:14:00,
2013-01-27 01:20:00,19.5,17.3,30.48,SW,219,0.0,1.0,91,0.00,,---,0.00,VWS V14.01,2013-01-27 06:20:00,
2013-01-27 01:25:00,19.5,17.3,30.47,NNE,13,1.0,1.0,91,0.00,,---,0.00,VWS V14.01,2013-01-27 06:25:00,
2013-01-27 01:30:00,19.5,17.3,30.47,ENE,69,0.0,2.0,91,0.00,,---,0.00,VWS V14.01,2013-01-27 06:30:00,
2013-01-27 01:35:00,19.4,17.2,30.47,ENE,69,0.0,1.0,91,0.00,,---,0.00,VWS V14.01,2013-01-27 06:35:00,
2013-01-27 01:40:00,19.4,17.2,30.47,ENE,73,0.0,1.0,91,0.00,,---,0.00,VWS V14.01,2013-01-27 06:40:00,
2013-01-27 01:45:00,19.3,17.1,30.47,ESE,121,1.0,1.0,91,0.00,,---,0.00,VWS V14.01,2013-01-27 06:45:00,
2013-01-27 01:50:00,19.3,17.1,30.47,ESE,118,0.0,1.0,91,0.00,,---,0.00,VWS V14.01,2013-01-27 06:50:00,
2013-01-27 01:55:00,19.2,17.0,30.47,ESE,104,0.0,1.0,91,0.00,,---,0.00,VWS V14.01,2013-01-27 06:55:00,
2013-01-27 02:00:00,19.1,16.9,30.47,ESE,104,0.0,0.0,91,0.00,,---,0.00,VWS V14.01,2013-01-27 07:00:00,
2013-01-27 02:05:00,19.0,16.8,30.47,ENE,77,0.0,1.0,91,0.00,,---,0.00,VWS V14.01,2013-01-27 07:05:00,
2013-01-27 02:13:00,18.9,16.7,30.48,ENE,78,0.0,1.0,91,0.00,,---,0.00,VWS V14.01,2013-01-27 07:13:00,
2013-01-27 02:18:00,18.9,16.7,30.48,ENE,78,0.0,1.0,91,0.00,,---,0.00,VWS V14.01,2013-01-27 07:18:00,
2013-01-27 02:23:00,18.9,16.7,30.48,NNE,13,0.0,3.0,91,0.00,,---,0.00,VWS V14.01,2013-01-27 07:23:00,
2013-01-27 02:28:00,18.8,16.6,30.48,NNE,15,0.0,3.0,91,0.00,,---,0.00,VWS V14.01,2013-01-27 07:28:00,
2013-01-27 02:33:00,18.8,16.6,30.48,SE,126,0.0,1.0,91,0.00,,---,0.00,VWS V14.01,2013-01-27 07:33:00,
2013-01-27 02:38:00,18.7,16.5,30.47,East,95,0.0,2.0,91,0.00,,---,0.00,VWS V14.01,2013-01-27 07:38:00,
2013-01-27 02:44:00,18.6,16.4,30.47,East,80,1.0,4.0,91,0.00,,---,0.00,VWS V14.01,2013-01-27 07:44:00,
2013-01-27 02:49:00,18.6,16.4,30.46,East,101,1.0,4.0,91,0.00,,---,0.00,VWS V14.01,2013-01-27 07:49:00,
2013-01-27 02:54:00,18.5,16.3,30.47,SE,130,4.0,4.0,91,0.00,,---,0.00,VWS V14.01,2013-01-27 07:54:00,
2013-01-27 02:59:00,18.5,16.3,30.47,SE,129,1.0,5.0,91,0.00,,---,0.00,VWS V14.01,2013-01-27 07:59:00,
2013-01-27 03:04:00,18.5,16.3,30.47,SE,132,2.0,2.0,91,0.00,,---,0.00,VWS V14.01,2013-01-27 08:04:00,
2013-01-27 03:09:00,18.4,16.2,30.47,SE,132,1.0,3.0,91,0.00,,---,0.00,VWS V14.01,2013-01-27 08:09:00,
2013-01-27 03:14:00,18.3,16.1,30.48,East,94,0.0,4.0,91,0.00,,---,0.00,VWS V14.01,2013-01-27 08:14:00,
2013-01-27 03:19:00,18.4,16.5,30.47,ESE,112,2.0,6.0,92,0.00,,---,0.00,VWS V14.01,2013-01-27 08:19:00,
2013-01-27 03:24:00,18.4,16.5,30.47,ENE,60,1.0,6.0,92,0.00,,---,0.00,VWS V14.01,2013-01-27 08:24:00,
2013-01-27 03:29:00,18.4,16.5,30.47,SE,134,2.0,6.0,92,0.00,,---,0.00,VWS V14.01,2013-01-27 08:29:00,
2013-01-27 03:35:00,18.3,16.4,30.47,ESE,113,5.0,5.0,92,0.00,,---,0.00,VWS V14.01,2013-01-27 08:35:00,
2013-01-27 03:40:00,18.3,16.1,30.47,ESE,108,4.0,6.0,91,0.00,,---,0.00,VWS V14.01,2013-01-27 08:40:00,
2013-01-27 03:45:00,18.2,16.0,30.47,SE,145,3.0,6.0,91,0.00,,---,0.00,VWS V14.01,2013-01-27 08:45:00,
2013-01-27 03:50:00,18.1,15.9,30.47,SE,134,1.0,6.0,91,0.00,,---,0.00,VWS V14.01,2013-01-27 08:50:00,
2013-01-27 03:55:00,18.1,16.2,30.47,SSE,165,2.0,6.0,92,0.00,,---,0.00,VWS V14.01,2013-01-27 08:55:00,
2013-01-27 04:00:00,17.9,16.0,30.47,ESE,113,3.0,3.0,92,0.00,,---,0.00,VWS V14.01,2013-01-27 09:00:00,
2013-01-27 04:05:00,17.9,16.0,30.47,East,101,1.0,3.0,92,0.00,,---,0.00,VWS V14.01,2013-01-27 09:05:00,
2013-01-27 04:10:00,17.8,15.9,30.47,East,93,0.0,3.0,92,0.00,,---,0.00,VWS V14.01,2013-01-27 09:10:00,
2013-01-27 04:16:00,17.7,15.8,30.48,ESE,109,0.0,3.0,92,0.00,,---,0.00,VWS V14.01,2013-01-27 09:16:00,
2013-01-27 04:21:00,17.7,15.8,30.47,ENE,74,2.0,4.0,92,0.00,,---,0.00,VWS V14.01,2013-01-27 09:21:00,
2013-01-27 04:26:00,17.8,15.9,30.48,East,91,0.0,4.0,92,0.00,,---,0.00,VWS V14.01,2013-01-27 09:26:00,
2013-01-27 04:31:00,17.7,15.8,30.49,East,89,0.0,2.0,92,0.00,,---,0.00,VWS V14.01,2013-01-27 09:31:00,
2013-01-27 04:36:00,17.8,15.9,30.49,East,82,0.0,2.0,92,0.00,,---,0.00,VWS V14.01,2013-01-27 09:36:00,
2013-01-27 04:41:00,17.7,15.8,30.49,ESE,122,0.0,2.0,92,0.00,,---,0.00,VWS V14.01,2013-01-27 09:41:00,
2013-01-27 04:46:00,17.7,15.8,30.49,ESE,112,1.0,2.0,92,0.00,,---,0.00,VWS V14.01,2013-01-27 09:46:00,
2013-01-27 04:51:00,17.6,15.7,30.49,ESE,120,0.0,3.0,92,0.00,,---,0.00,VWS V14.01,2013-01-27 09:51:00,
2013-01-27 04:57:00,17.5,15.6,30.49,ESE,111,0.0,3.0,92,0.00,,---,0.00,VWS V14.01,2013-01-27 09:57:00,
2013-01-27 05:02:00,17.4,15.5,30.49,ESE,112,1.0,1.0,92,0.00,,---,0.00,VWS V14.01,2013-01-27 10:02:00,
2013-01-27 05:07:00,17.2,15.3,30.49,East,97,3.0,5.0,92,0.00,,---,0.00,VWS V14.01,2013-01-27 10:07:00,
2013-01-27 05:12:00,17.1,15.4,30.49,ESE,108,3.0,5.0,93,0.00,,---,0.00,VWS V14.01,2013-01-27 10:12:00,
2013-01-27 05:17:00,17.2,15.5,30.49,East,86,2.0,5.0,93,0.00,,---,0.00,VWS V14.01,2013-01-27 10:17:00,
2013-01-27 05:22:00,17.1,15.4,30.48,ESE,107,3.0,6.0,93,0.00,,---,0.00,VWS V14.01,2013-01-27 10:22:00,
2013-01-27 05:27:00,17.0,15.3,30.47,ESE,108,2.0,6.0,93,0.00,,---,0.00,VWS V14.01,2013-01-27 10:27:00,
2013-01-27 05:32:00,17.0,15.3,30.47,East,98,5.0,6.0,93,0.00,,---,0.00,VWS V14.01,2013-01-27 10:32:00,
2013-01-27 05:37:00,17.0,15.3,30.47,East,100,6.0,10.0,93,0.00,,---,0.00,VWS V14.01,2013-01-27 10:37:00,
2013-01-27 05:43:00,17.1,15.4,30.47,SE,126,7.0,10.0,93,0.00,,---,0.00,VWS V14.01,2013-01-27 10:43:00,
2013-01-27 05:48:00,17.2,15.5,30.47,SE,127,6.0,11.0,93,0.00,,---,0.00,VWS V14.01,2013-01-27 10:48:00,
2013-01-27 05:53:00,17.2,15.5,30.47,SE,124,9.0,11.0,93,0.00,,---,0.00,VWS V14.01,2013-01-27 10:53:00,
2013-01-27 05:58:00,17.3,15.6,30.47,ESE,103,6.0,11.0,93,0.00,,---,0.00,VWS V14.01,2013-01-27 10:58:00,
2013-01-27 06:03:00,17.3,15.6,30.48,ENE,75,9.0,11.0,93,0.00,,---,0.00,VWS V14.01,2013-01-27 11:03:00,
2013-01-27 06:08:00,17.3,15.6,30.48,East,100,4.0,11.0,93,0.00,,---,0.00,VWS V14.01,2013-01-27 11:08:00,
2013-01-27 06:13:00,17.3,15.6,30.48,SE,138,6.0,11.0,93,0.00,,---,0.00,VWS V14.01,2013-01-27 11:13:00,
2013-01-27 06:18:00,17.4,15.7,30.49,ESE,115,7.0,11.0,93,0.00,,---,0.00,VWS V14.01,2013-01-27 11:18:00,
2013-01-27 06:24:00,17.3,15.6,30.49,ESE,121,4.0,11.0,93,0.00,,---,0.00,VWS V14.01,2013-01-27 11:24:00,
2013-01-27 06:29:00,17.2,15.3,30.49,ESE,109,4.0,11.0,92,0.00,,---,0.00,VWS V14.01,2013-01-27 11:29:00,
2013-01-27 06:34:00,17.2,15.5,30.49,ESE,107,5.0,6.0,93,0.00,,---,0.00,VWS V14.01,2013-01-27 11:34:00,
2013-01-27 06:39:00,17.1,15.4,30.50,ESE,122,4.0,6.0,93,0.00,,---,0.00,VWS V14.01,2013-01-27 11:39:00,
2013-01-27 06:44:00,17.1,15.4,30.50,ESE,110,4.0,8.0,93,0.00,,---,0.00,VWS V14.01,2013-01-27 11:44:00,
2013-01-27 06:49:00,17.1,15.2,30.50,ENE,77,3.0,8.0,92,0.00,,---,0.00,VWS V14.01,2013-01-27 11:49:00,
2013-01-27 06:54:00,17.0,15.1,30.50,ENE,75,2.0,8.0,92,0.00,,---,0.00,VWS V14.01,2013-01-27 11:54:00,
2013-01-27 06:59:00,16.9,15.2,30.50,SE,125,3.0,8.0,93,0.00,,---,0.00,VWS V14.01,2013-01-27 11:59:00,
2013-01-27 07:04:00,16.9,15.2,30.51,ENE,69,4.0,5.0,93,0.00,,---,0.00,VWS V14.01,2013-01-27 12:04:00,
2013-01-27 07:10:00,16.9,15.2,30.51,ESE,119,3.0,5.0,93,0.00,,---,0.00,VWS V14.01,2013-01-27 12:10:00,
2013-01-27 07:15:00,16.8,15.1,30.51,ESE,113,2.0,5.0,93,0.00,,---,0.00,VWS V14.01,2013-01-27 12:15:00,
2013-01-27 07:20:00,16.7,15.0,30.51,SE,126,5.0,6.0,93,0.00,,---,0.00,VWS V14.01,2013-01-27 12:20:00,
2013-01-27 07:25:00,16.8,15.1,30.51,ESE,104,3.0,6.0,93,0.00,,---,0.00,VWS V14.01,2013-01-27 12:25:00,
2013-01-27 07:30:00,16.8,15.1,30.51,SSE,150,3.0,5.0,93,0.00,,---,0.00,VWS V14.01,2013-01-27 12:30:00,
2013-01-27 07:35:00,17.0,15.3,30.51,SSE,149,2.0,7.0,93,0.00,,---,0.00,VWS V14.01,2013-01-27 12:35:00,
2013-01-27 07:40:00,17.2,15.5,30.51,East,89,6.0,9.0,93,0.00,,---,0.00,VWS V14.01,2013-01-27 12:40:00,
2013-01-27 07:45:00,17.3,15.6,30.51,SE,130,10.0,10.0,93,0.00,,---,0.00,VWS V14.01,2013-01-27 12:45:00,
2013-01-27 07:51:00,17.4,15.5,30.51,ESE,102,8.0,10.0,92,0.00,,---,0.00,VWS V14.01,2013-01-27 12:51:00,
2013-01-27 07:56:00,17.5,15.6,30.52,East,91,6.0,10.0,92,0.00,,---,0.00,VWS V14.01,2013-01-27 12:56:00,
2013-01-27 08:01:00,17.6,15.7,30.52,ESE,122,6.0,10.0,92,0.00,,---,0.00,VWS V14.01,2013-01-27 13:01:00,
2013-01-27 08:06:00,17.8,15.9,30.52,ESE,117,8.0,11.0,92,0.00,,---,0.00,VWS V14.01,2013-01-27 13:06:00,
2013-01-27 08:11:00,18.2,16.3,30.52,East,89,7.0,12.0,92,0.00,,---,0.00,VWS V14.01,2013-01-27 13:11:00,
2013-01-27 08:16:00,18.5,16.3,30.52,SE,126,9.0,12.0,91,0.00,,---,0.00,VWS V14.01,2013-01-27 13:16:00,
2013-01-27 08:21:00,18.8,16.6,30.53,ESE,118,7.0,12.0,91,0.00,,---,0.00,VWS V14.01,2013-01-27 13:21:00,
2013-01-27 08:26:00,19.0,16.6,30.53,ESE,111,5.0,12.0,90,0.00,,---,0.00,VWS V14.01,2013-01-27 13:26:00,
2013-01-27 08:31:00,19.2,16.8,30.53,SSE,150,8.0,14.0,90,0.00,,---,0.00,VWS V14.01,2013-01-27 13:31:00,
2013-01-27 08:37:00,19.4,17.0,30.53,SE,134,11.0,14.0,90,0.00,,---,0.00,VWS V14.01,2013-01-27 13:37:00,
2013-01-27 08:42:00,19.6,16.9,30.54,East,86,6.0,14.0,89,0.00,,---,0.00,VWS V14.01,2013-01-27 13:42:00,
2013-01-27 08:47:00,19.8,17.1,30.54,ESE,120,4.0,14.0,89,0.00,,---,0.00,VWS V14.01,2013-01-27 13:47:00,
2013-01-27 08:52:00,20.1,17.4,30.54,SE,127,7.0,14.0,89,0.00,,---,0.00,VWS V14.01,2013-01-27 13:52:00,
2013-01-27 08:57:00,20.3,17.3,30.55,East,99,8.0,14.0,88,0.00,,---,0.00,VWS V14.01,2013-01-27 13:57:00,
2013-01-27 09:02:00,20.5,17.5,30.55,ENE,59,8.0,12.0,88,0.00,,---,0.00,VWS V14.01,2013-01-27 14:02:00,
2013-01-27 09:07:00,20.7,17.5,30.54,SE,127,9.0,13.0,87,0.00,,---,0.00,VWS V14.01,2013-01-27 14:07:00,
2013-01-27 09:12:00,20.9,17.6,30.54,East,101,13.0,13.0,87,0.00,,---,0.00,VWS V14.01,2013-01-27 14:12:00,
2013-01-27 09:17:00,21.0,17.5,30.54,ESE,110,8.0,13.0,86,0.00,,---,0.00,VWS V14.01,2013-01-27 14:17:00,
2013-01-27 09:22:00,21.1,17.6,30.55,ESE,118,12.0,13.0,86,0.00,,---,0.00,VWS V14.01,2013-01-27 14:22:00,
2013-01-27 09:27:00,21.2,17.7,30.55,SE,127,11.0,16.0,86,0.00,,---,0.00,VWS V14.01,2013-01-27 14:27:00,
2013-01-27 09:32:00,21.2,17.7,30.54,ENE,67,8.0,14.0,86,0.00,,---,0.00,VWS V14.01,2013-01-27 14:32:00,
2013-01-27 09:37:00,21.6,17.8,30.55,SE,141,7.0,14.0,85,0.00,,---,0.00,VWS V14.01,2013-01-27 14:37:00,
2013-01-27 09:42:00,21.9,18.1,30.55,SE,138,8.0,14.0,85,0.00,,---,0.00,VWS V14.01,2013-01-27 14:42:00,
2013-01-27 09:48:00,22.2,18.1,30.55,SE,130,5.0,14.0,84,0.00,,---,0.00,VWS V14.01,2013-01-27 14:48:00,
2013-01-27 09:53:00,22.5,18.4,30.55,SE,132,6.0,14.0,84,0.00,,---,0.00,VWS V14.01,2013-01-27 14:53:00,
2013-01-27 09:58:00,22.9,18.8,30.55,SE,136,9.0,14.0,84,0.00,,---,0.00,VWS V14.01,2013-01-27 14:58:00,
2013-01-27 10:03:00,23.3,18.6,30.55,East,97,5.0,12.0,82,0.00,,---,0.00,VWS V14.01,2013-01-27 15:03:00,
2013-01-27 10:08:00,23.8,19.1,30.55,East,89,8.0,12.0,82,0.00,,---,0.00,VWS V14.01,2013-01-27 15:08:00,
2013-01-27 10:13:00,24.2,19.2,30.56,SE,129,8.0,14.0,81,0.00,,---,0.00,VWS V14.01,2013-01-27 15:13:00,
2013-01-27 10:18:00,24.6,19.6,30.56,ESE,113,4.0,15.0,81,0.00,,---,0.00,VWS V14.01,2013-01-27 15:18:00,
2013-01-27 10:23:00,24.8,19.5,30.56,East,91,7.0,15.0,80,0.00,,---,0.00,VWS V14.01,2013-01-27 15:23:00,
2013-01-27 10:28:00,25.1,19.5,30.56,ESE,120,6.0,15.0,79,0.00,,---,0.00,VWS V14.01,2013-01-27 15:28:00,
2013-01-27 10:33:00,25.3,19.4,30.56,ENE,76,13.0,13.0,78,0.00,,---,0.00,VWS V14.01,2013-01-27 15:33:00,
2013-01-27 10:38:00,25.5,19.6,30.56,ESE,117,10.0,14.0,78,0.00,,---,0.00,VWS V14.01,2013-01-27 15:38:00,
2013-01-27 10:44:00,25.8,19.9,30.56,ESE,103,12.0,14.0,78,0.00,,---,0.00,VWS V14.01,2013-01-27 15:44:00,
2013-01-27 10:49:00,26.1,19.9,30.56,SE,136,10.0,15.0,77,0.00,,---,0.00,VWS V14.01,2013-01-27 15:49:00,
2013-01-27 10:54:00,26.1,19.9,30.56,East,100,12.0,16.0,77,0.00,,---,0.00,VWS V14.01,2013-01-27 15:54:00,
2013-01-27 10:59:00,26.5,20.3,30.56,East,96,12.0,16.0,77,0.00,,---,0.00,VWS V14.01,2013-01-27 15:59:00,
2013-01-27 11:04:00,26.9,21.0,30.56,SE,124,7.0,11.0,78,0.00,,---,0.00,VWS V14.01,2013-01-27 16:04:00,
2013-01-27 11:09:00,27.0,20.5,30.56,ESE,120,10.0,14.0,76,0.00,,---,0.00,VWS V14.01,2013-01-27 16:09:00,
2013-01-27 11:14:00,27.0,20.5,30.55,ESE,123,9.0,14.0,76,0.00,,---,0.00,VWS V14.01,2013-01-27 16:14:00,
2013-01-27 11:19:00,27.0,20.5,30.55,ESE,113,12.0,14.0,76,0.00,,---,0.00,VWS V14.01,2013-01-27 16:19:00,
2013-01-27 11:24:00,27.1,20.9,30.55,SE,129,4.0,15.0,77,0.00,,---,0.00,VWS V14.01,2013-01-27 16:24:00,
2013-01-27 11:30:00,27.4,21.1,30.54,SE,132,7.0,15.0,77,0.00,,---,0.00,VWS V14.01,2013-01-27 16:30:00,
2013-01-27 11:35:00,27.4,20.8,30.54,SE,127,10.0,14.0,76,0.00,,---,0.00,VWS V14.01,2013-01-27 16:35:00,
2013-01-27 11:40:00,27.5,20.9,30.54,East,92,9.0,16.0,76,0.00,,---,0.00,VWS V14.01,2013-01-27 16:40:00,
2013-01-27 11:45:00,27.6,21.0,30.53,East,89,8.0,16.0,76,0.00,,---,0.00,VWS V14.01,2013-01-27 16:45:00,
2013-01-27 11:50:00,28.0,21.1,30.53,ESE,117,15.0,19.0,75,0.00,,---,0.00,VWS V14.01,2013-01-27 16:50:00,
2013-01-27 11:55:00,28.0,20.8,30.53,ESE,109,7.0,19.0,74,0.00,,---,0.00,VWS V14.01,2013-01-27 16:55:00,
2013-01-27 12:00:00,28.3,21.1,30.52,ESE,105,12.0,15.0,74,0.00,,---,0.00,VWS V14.01,2013-01-27 17:00:00,
2013-01-27 12:06:00,28.3,21.1,30.52,ESE,108,8.0,15.0,74,0.00,,---,0.00,VWS V14.01,2013-01-27 17:06:00,
2013-01-27 12:11:00,28.5,21.3,30.52,ESE,113,9.0,15.0,74,0.00,,---,0.00,VWS V14.01,2013-01-27 17:11:00,
2013-01-27 12:16:00,28.8,21.6,30.52,ESE,117,9.0,15.0,74,0.00,,---,0.00,VWS V14.01,2013-01-27 17:16:00,
2013-01-27 12:21:00,29.0,21.8,30.52,ESE,115,12.0,15.0,74,0.00,,---,0.00,VWS V14.01,2013-01-27 17:21:00,
2013-01-27 12:26:00,29.3,21.7,30.52,ENE,59,4.0,15.0,73,0.00,,---,0.00,VWS V14.01,2013-01-27 17:26:00,
2013-01-27 12:31:00,29.4,21.5,30.52,SE,127,5.0,10.0,72,0.00,,---,0.00,VWS V14.01,2013-01-27 17:31:00,
2013-01-27 12:36:00,29.7,21.8,30.52,ENE,71,5.0,13.0,72,0.00,,---,0.00,VWS V14.01,2013-01-27 17:36:00,
2013-01-27 12:41:00,29.8,21.9,30.52,East,101,5.0,13.0,72,0.00,,---,0.00,VWS V14.01,2013-01-27 17:41:00,
2013-01-27 12:46:00,30.1,21.9,30.52,ESE,103,8.0,13.0,71,0.00,,---,0.00,VWS V14.01,2013-01-27 17:46:00,
2013-01-27 12:51:00,30.3,22.0,30.51,SE,129,7.0,13.0,71,0.00,,---,0.00,VWS V14.01,2013-01-27 17:51:00,
2013-01-27 12:56:00,30.3,22.0,30.51,ESE,120,7.0,13.0,71,0.00,,---,0.00,VWS V14.01,2013-01-27 17:56:00,
2013-01-27 13:02:00,30.3,22.0,30.51,ESE,102,7.0,9.0,71,0.00,,---,0.00,VWS V14.01,2013-01-27 18:02:00,
2013-01-27 13:07:00,30.4,22.1,30.51,East,93,11.0,14.0,71,0.00,,---,0.00,VWS V14.01,2013-01-27 18:07:00,
2013-01-27 13:12:00,30.6,22.3,30.51,ESE,115,7.0,14.0,71,0.00,,---,0.00,VWS V14.01,2013-01-27 18:12:00,
2013-01-27 13:17:00,30.6,22.3,30.51,ENE,70,5.0,14.0,71,0.00,,---,0.00,VWS V14.01,2013-01-27 18:17:00,
2013-01-27 13:22:00,30.9,22.3,30.51,ESE,106,4.0,14.0,70,0.00,,---,0.00,VWS V14.01,2013-01-27 18:22:00,
2013-01-27 13:27:00,31.2,22.6,30.51,ESE,105,1.0,14.0,70,0.00,,---,0.00,VWS V14.01,2013-01-27 18:27:00,
2013-01-27 13:32:00,31.2,22.6,30.51,ESE,108,7.0,9.0,70,0.00,,---,0.00,VWS V14.01,2013-01-27 18:32:00,
2013-01-27 13:38:00,31.5,22.5,30.51,ESE,119,8.0,9.0,69,0.00,,---,0.00,VWS V14.01,2013-01-27 18:38:00,
2013-01-27 13:43:00,31.9,22.9,30.51,ESE,111,8.0,12.0,69,0.00,,---,0.00,VWS V14.01,2013-01-27 18:43:00,
2013-01-27 13:48:00,32.3,22.9,30.50,SE,127,3.0,13.0,68,0.00,,---,0.00,VWS V14.01,2013-01-27 18:48:00,
2013-01-27 13:53:00,32.0,22.3,30.50,ESE,110,7.0,13.0,67,0.00,,---,0.00,VWS V14.01,2013-01-27 18:53:00,
2013-01-27 13:58:00,32.3,22.6,30.50,ESE,103,8.0,15.0,67,0.00,,---,0.00,VWS V14.01,2013-01-27 18:58:00,
2013-01-27 14:03:00,32.5,22.8,30.50,ESE,113,9.0,12.0,67,0.00,,---,0.00,VWS V14.01,2013-01-27 19:03:00,
2013-01-27 14:08:00,32.3,22.6,30.50,East,87,7.0,14.0,67,0.00,,---,0.00,VWS V14.01,2013-01-27 19:08:00,
2013-01-27 14:13:00,32.1,22.4,30.50,ESE,105,5.0,15.0,67,0.00,,---,0.00,VWS V14.01,2013-01-27 19:13:00,
2013-01-27 14:18:00,32.1,22.8,30.50,ESE,123,4.0,15.0,68,0.00,,---,0.00,VWS V14.01,2013-01-27 19:18:00,
2013-01-27 14:23:00,32.1,22.8,30.50,East,79,5.0,15.0,68,0.00,,---,0.00,VWS V14.01,2013-01-27 19:23:00,
2013-01-27 14:29:00,31.9,22.5,30.49,ESE,105,11.0,15.0,68,0.00,,---,0.00,VWS V14.01,2013-01-27 19:29:00,
2013-01-27 14:34:00,31.9,22.5,30.49,ESE,103,9.0,12.0,68,0.00,,---,0.00,VWS V14.01,2013-01-27 19:34:00,
2013-01-27 14:39:00,32.1,22.8,30.49,East,91,6.0,12.0,68,0.00,,---,0.00,VWS V14.01,2013-01-27 19:39:00,
2013-01-27 14:44:00,32.1,22.8,30.49,East,85,8.0,13.0,68,0.00,,---,0.00,VWS V14.01,2013-01-27 19:44:00,
2013-01-27 14:49:00,32.5,23.1,30.49,SE,129,5.0,13.0,68,0.00,,---,0.00,VWS V14.01,2013-01-27 19:49:00,
2013-01-27 14:54:00,32.7,23.0,30.49,SE,134,2.0,13.0,67,0.00,,---,0.00,VWS V14.01,2013-01-27 19:54:00,
2013-01-27 14:59:00,32.6,22.9,30.49,ESE,118,7.0,14.0,67,0.00,,---,0.00,VWS V14.01,2013-01-27 19:59:00,
2013-01-27 15:04:00,32.5,22.8,30.50,East,89,9.0,11.0,67,0.00,,---,0.00,VWS V14.01,2013-01-27 20:04:00,
2013-01-27 15:09:00,32.5,23.1,30.50,ESE,105,3.0,11.0,68,0.00,,---,0.00,VWS V14.01,2013-01-27 20:09:00,
2013-01-27 15:14:00,32.7,23.0,30.50,East,95,5.0,11.0,67,0.00,,---,0.00,VWS V14.01,2013-01-27 20:14:00,
2013-01-27 15:20:00,32.8,23.1,30.50,East,79,4.0,11.0,67,0.00,,---,0.00,VWS V14.01,2013-01-27 20:20:00,
2013-01-27 15:25:00,32.7,23.3,30.50,ESE,116,4.0,11.0,68,0.00,,---,0.00,VWS V14.01,2013-01-27 20:25:00,
2013-01-27 15:30:00,32.7,23.0,30.49,East,91,4.0,7.0,67,0.00,,---,0.00,VWS V14.01,2013-01-27 20:30:00,
2013-01-27 15:35:00,32.6,23.2,30.50,ENE,70,6.0,11.0,68,0.00,,---,0.00,VWS V14.01,2013-01-27 20:35:00,
2013-01-27 15:40:00,32.4,23.0,30.50,ESE,103,5.0,11.0,68,0.00,,---,0.00,VWS V14.01,2013-01-27 20:40:00,
2013-01-27 15:45:00,32.2,22.8,30.50,SE,139,4.0,11.0,68,0.00,,---,0.00,VWS V14.01,2013-01-27 20:45:00,
2013-01-27 15:50:00,32.0,22.6,30.49,ESE,108,4.0,12.0,68,0.00,,---,0.00,VWS V14.01,2013-01-27 20:50:00,
2013-01-27 15:55:00,32.0,22.6,30.49,ENE,68,6.0,12.0,68,0.00,,---,0.00,VWS V14.01,2013-01-27 20:55:00,
2013-01-27 16:00:00,31.9,22.9,30.50,East,101,6.0,7.0,69,0.00,,---,0.00,VWS V14.01,2013-01-27 21:00:00,
2013-01-27 16:05:00,31.9,22.9,30.50,SE,132,11.0,12.0,69,0.00,,---,0.00,VWS V14.01,2013-01-27 21:05:00,
2013-01-27 16:10:00,31.9,22.9,30.50,ESE,115,8.0,12.0,69,0.00,,---,0.00,VWS V14.01,2013-01-27 21:10:00,
2013-01-27 16:15:00,31.9,22.9,30.50,SE,145,3.0,12.0,69,0.00,,---,0.00,VWS V14.01,2013-01-27 21:15:00,
2013-01-27 16:21:00,31.9,22.9,30.50,SE,138,4.0,12.0,69,0.00,,---,0.00,VWS V14.01,2013-01-27 21:21:00,
2013-01-27 16:26:00,31.8,22.8,30.50,ESE,113,9.0,12.0,69,0.00,,---,0.00,VWS V14.01,2013-01-27 21:26:00,
2013-01-27 16:31:00,31.8,22.8,30.50,SE,143,3.0,11.0,69,0.00,,---,0.00,VWS V14.01,2013-01-27 21:31:00,
2013-01-27 16:36:00,31.7,23.0,30.50,ESE,112,7.0,12.0,70,0.00,,---,0.00,VWS V14.01,2013-01-27 21:36:00,
2013-01-27 16:41:00,31.9,23.2,30.50,SE,130,9.0,12.0,70,0.00,,---,0.00,VWS V14.01,2013-01-27 21:41:00,
2013-01-27 16:46:00,31.8,22.8,30.50,East,96,9.0,12.0,69,0.00,,---,0.00,VWS V14.01,2013-01-27 21:46:00,
2013-01-27 16:51:00,32.0,23.0,30.50,ESE,118,10.0,12.0,69,0.00,,---,0.00,VWS V14.01,2013-01-27 21:51:00,
2013-01-27 16:56:00,32.1,23.1,30.50,ESE,113,10.0,12.0,69,0.00,,---,0.00,VWS V14.01,2013-01-27 21:56:00,
2013-01-27 17:01:00,32.1,23.1,30.50,ESE,103,9.0,11.0,69,0.00,,---,0.00,VWS V14.01,2013-01-27 22:01:00,
2013-01-27 17:06:00,31.9,22.9,30.50,SE,127,11.0,11.0,69,0.00,,---,0.00,VWS V14.01,2013-01-27 22:06:00,
2013-01-27 17:11:00,31.8,23.1,30.50,East,91,6.0,12.0,70,0.00,,---,0.00,VWS V14.01,2013-01-27 22:11:00,
2013-01-27 17:16:00,31.7,23.0,30.50,East,96,7.0,12.0,70,0.00,,---,0.00,VWS V14.01,2013-01-27 22:16:00,
2013-01-27 17:21:00,31.6,23.0,30.49,East,98,9.0,12.0,70,0.00,,---,0.00,VWS V14.01,2013-01-27 22:21:00,
2013-01-27 17:26:00,31.5,23.2,30.49,ESE,103,8.0,12.0,71,0.00,,---,0.00,VWS V14.01,2013-01-27 22:26:00,
2013-01-27 17:32:00,31.3,23.0,30.49,SE,137,4.0,11.0,71,0.00,,---,0.00,VWS V14.01,2013-01-27 22:32:00,
2013-01-27 17:37:00,31.2,22.9,30.49,ESE,113,11.0,11.0,71,0.00,,---,0.00,VWS V14.01,2013-01-27 22:37:00,
2013-01-27 17:42:00,31.2,22.9,30.49,SE,141,9.0,13.0,71,0.00,,---,0.00,VWS V14.01,2013-01-27 22:42:00,
2013-01-27 17:47:00,31.0,23.0,30.49,ENE,77,7.0,13.0,72,0.00,,---,0.00,VWS V14.01,2013-01-27 22:47:00,
2013-01-27 17:52:00,31.0,23.0,30.50,ESE,119,10.0,13.0,72,0.00,,---,0.00,VWS V14.01,2013-01-27 22:52:00,
2013-01-27 17:57:00,30.9,23.0,30.50,East,84,8.0,13.0,72,0.00,,---,0.00,VWS V14.01,2013-01-27 22:57:00,
2013-01-27 18:02:00,30.9,23.0,30.49,SE,129,7.0,13.0,72,0.00,,---,0.00,VWS V14.01,2013-01-27 23:02:00,
2013-01-27 18:07:00,30.9,23.0,30.49,East,100,8.0,13.0,72,0.00,,---,0.00,VWS V14.01,2013-01-27 23:07:00,
2013-01-27 18:12:00,30.9,23.0,30.49,East,92,6.0,13.0,72,0.00,,---,0.00,VWS V14.01,2013-01-27 23:12:00,
2013-01-27 18:17:00,30.9,23.3,30.49,ESE,111,9.0,13.0,73,0.00,,---,0.00,VWS V14.01,2013-01-27 23:17:00,
2013-01-27 18:22:00,30.9,23.3,30.49,East,84,6.0,13.0,73,0.00,,---,0.00,VWS V14.01,2013-01-27 23:22:00,
2013-01-27 18:27:00,30.9,23.3,30.49,ESE,121,7.0,13.0,73,0.00,,---,0.00,VWS V14.01,2013-01-27 23:27:00,
2013-01-27 18:32:00,30.9,23.3,30.49,ENE,77,4.0,9.0,73,0.00,,---,0.00,VWS V14.01,2013-01-27 23:32:00,
2013-01-27 18:38:00,30.9,23.3,30.49,ENE,77,6.0,9.0,73,0.00,,---,0.00,VWS V14.01,2013-01-27 23:38:00,
2013-01-27 18:43:00,30.9,23.3,30.49,ESE,120,6.0,12.0,73,0.00,,---,0.00,VWS V14.01,2013-01-27 23:43:00,
2013-01-27 18:48:00,30.9,23.3,30.48,ESE,121,8.0,12.0,73,0.00,,---,0.00,VWS V14.01,2013-01-27 23:48:00,
2013-01-27 18:53:00,30.9,23.3,30.49,East,101,6.0,13.0,73,0.00,,---,0.00,VWS V14.01,2013-01-27 23:53:00,
2013-01-27 18:58:00,30.9,23.6,30.48,SE,129,8.0,13.0,74,0.00,,---,0.00,VWS V14.01,2013-01-27 23:58:00,
2013-01-27 19:03:00,30.9,23.6,30.48,ESE,103,12.0,14.0,74,0.00,,---,0.00,VWS V14.01,2013-01-28 00:03:00,
2013-01-27 19:08:00,30.9,23.6,30.48,ESE,118,6.0,15.0,74,0.00,,---,0.00,VWS V14.01,2013-01-28 00:08:00,
2013-01-27 19:13:00,30.9,23.6,30.48,ESE,103,9.0,15.0,74,0.00,,---,0.00,VWS V14.01,2013-01-28 00:13:00,
2013-01-27 19:18:00,30.8,23.5,30.48,ENE,72,5.0,15.0,74,0.00,,---,0.00,VWS V14.01,2013-01-28 00:18:00,
2013-01-27 19:23:00,30.8,23.5,30.48,SE,131,5.0,15.0,74,0.00,,---,0.00,VWS V14.01,2013-01-28 00:23:00,
2013-01-27 19:28:00,30.7,23.4,30.48,ESE,115,8.0,15.0,74,0.00,,---,0.00,VWS V14.01,2013-01-28 00:28:00,
2013-01-27 19:33:00,30.8,23.8,30.48,SE,133,8.0,12.0,75,0.00,,---,0.00,VWS V14.01,2013-01-28 00:33:00,
2013-01-27 19:38:00,30.7,23.4,30.48,SE,134,6.0,12.0,74,0.00,,---,0.00,VWS V14.01,2013-01-28 00:38:00,
2013-01-27 19:43:00,30.7,23.7,30.48,ESE,123,8.0,12.0,75,0.00,,---,0.00,VWS V14.01,2013-01-28 00:43:00,
2013-01-27 19:48:00,30.7,23.7,30.48,ESE,116,6.0,12.0,75,0.00,,---,0.00,VWS V14.01,2013-01-28 00:48:00,
2013-01-27 19:54:00,30.7,23.7,30.47,ESE,102,7.0,12.0,75,0.00,,---,0.00,VWS V14.01,2013-01-28 00:54:00,
2013-01-27 19:59:00,30.7,23.7,30.47,East,89,6.0,13.0,75,0.00,,---,0.00,VWS V14.01,2013-01-28 00:59:00,
2013-01-27 20:04:00,30.7,24.0,30.47,SE,125,8.0,14.0,76,0.00,,---,0.00,VWS V14.01,2013-01-28 01:04:00,
2013-01-27 20:09:00,30.7,24.0,30.47,East,99,7.0,14.0,76,0.00,,---,0.00,VWS V14.01,2013-01-28 01:09:00,
2013-01-27 20:14:00,30.7,23.7,30.47,ESE,122,4.0,14.0,75,0.00,,---,0.00,VWS V14.01,2013-01-28 01:14:00,
2013-01-27 20:19:00,30.7,24.0,30.46,ESE,116,5.0,14.0,76,0.00,,---,0.00,VWS V14.01,2013-01-28 01:19:00,
2013-01-27 20:24:00,30.8,24.1,30.47,ESE,120,7.0,14.0,76,0.00,,---,0.00,VWS V14.01,2013-01-28 01:24:00,
2013-01-27 20:29:00,30.8,24.1,30.47,ESE,105,6.0,14.0,76,0.00,,---,0.00,VWS V14.01,2013-01-28 01:29:00,
2013-01-27 20:34:00,30.9,23.9,30.47,East,101,7.0,10.0,75,0.00,,---,0.00,VWS V14.01,2013-01-28 01:34:00,
2013-01-27 20:39:00,30.8,23.8,30.47,ESE,107,3.0,12.0,75,0.00,,---,0.00,VWS V14.01,2013-01-28 01:39:00,
2013-01-27 20:44:00,30.8,24.1,30.47,ESE,111,10.0,12.0,76,0.00,,---,0.00,VWS V14.01,2013-01-28 01:44:00,
2013-01-27 20:49:00,30.8,24.1,30.46,East,94,5.0,12.0,76,0.00,,---,0.00,VWS V14.01,2013-01-28 01:49:00,
2013-01-27 20:55:00,30.8,24.1,30.46,East,101,9.0,12.0,76,0.00,,---,0.00,VWS V14.01,2013-01-28 01:55:00,
2013-01-27 21:00:00,30.8,24.1,30.46,ESE,117,9.0,12.0,76,0.00,,---,0.00,VWS V14.01,2013-01-28 02:00:00,
2013-01-27 21:05:00,30.8,24.1,30.45,ENE,77,9.0,13.0,76,0.00,,---,0.00,VWS V14.01,2013-01-28 02:05:00,
2013-01-27 21:10:00,30.7,24.4,30.46,ESE,115,10.0,13.0,77,0.00,,---,0.00,VWS V14.01,2013-01-28 02:10:00,
2013-01-27 21:15:00,30.6,24.3,30.46,ESE,108,9.0,13.0,77,0.00,,---,0.00,VWS V14.01,2013-01-28 02:15:00,
2013-01-27 21:20:00,30.6,24.0,30.46,East,100,8.0,13.0,76,0.00,,---,0.00,VWS V14.01,2013-01-28 02:20:00,
2013-01-27 21:25:00,30.6,24.0,30.45,SE,127,9.0,13.0,76,0.00,,---,0.00,VWS V14.01,2013-01-28 02:25:00,
2013-01-27 21:30:00,30.6,24.0,30.45,ESE,109,5.0,7.0,76,0.00,,---,0.00,VWS V14.01,2013-01-28 02:30:00,
2013-01-27 21:36:00,30.6,24.0,30.45,ESE,107,8.0,11.0,76,0.00,,---,0.00,VWS V14.01,2013-01-28 02:36:00,
2013-01-27 21:41:00,30.6,24.0,30.45,ESE,105,5.0,14.0,76,0.00,,---,0.00,VWS V14.01,2013-01-28 02:41:00,
2013-01-27 21:46:00,30.6,24.0,30.45,ESE,105,7.0,14.0,76,0.00,,---,0.00,VWS V14.01,2013-01-28 02:46:00,
2013-01-27 21:51:00,30.6,24.0,30.45,ESE,114,8.0,14.0,76,0.00,,---,0.00,VWS V14.01,2013-01-28 02:51:00,
2013-01-27 21:56:00,30.6,24.0,30.45,ESE,102,7.0,14.0,76,0.00,,---,0.00,VWS V14.01,2013-01-28 02:56:00,
2013-01-27 22:01:00,30.6,24.3,30.45,ESE,113,7.0,10.0,77,0.00,,---,0.00,VWS V14.01,2013-01-28 03:01:00,
2013-01-27 22:06:00,30.5,24.2,30.45,ESE,123,4.0,10.0,77,0.00,,---,0.00,VWS V14.01,2013-01-28 03:06:00,
2013-01-27 22:11:00,30.5,24.2,30.45,ESE,116,8.0,11.0,77,0.00,,---,0.00,VWS V14.01,2013-01-28 03:11:00,
2013-01-27 22:16:00,30.6,24.3,30.45,SE,129,9.0,13.0,77,0.00,,---,0.00,VWS V14.01,2013-01-28 03:16:00,
2013-01-27 22:21:00,30.6,24.3,30.45,ESE,123,8.0,13.0,77,0.00,,---,0.00,VWS V14.01,2013-01-28 03:21:00,
2013-01-27 22:26:00,30.6,24.3,30.44,SE,134,9.0,13.0,77,0.00,,---,0.00,VWS V14.01,2013-01-28 03:26:00,
2013-01-27 22:31:00,30.6,24.3,30.44,ESE,117,7.0,12.0,77,0.00,,---,0.00,VWS V14.01,2013-01-28 03:31:00,
2013-01-27 22:36:00,30.6,24.3,30.44,ESE,121,5.0,13.0,77,0.00,,---,0.00,VWS V14.01,2013-01-28 03:36:00,
2013-01-27 22:41:00,30.6,24.3,30.44,SSE,154,4.0,13.0,77,0.00,,---,0.00,VWS V14.01,2013-01-28 03:41:00,
2013-01-27 22:46:00,30.5,24.2,30.44,SE,136,3.0,13.0,77,0.00,,---,0.00,VWS V14.01,2013-01-28 03:46:00,
2013-01-27 22:52:00,30.6,24.3,30.44,ESE,120,7.0,13.0,77,0.00,,---,0.00,VWS V14.01,2013-01-28 03:52:00,
2013-01-27 22:57:00,30.5,24.2,30.44,SE,127,8.0,13.0,77,0.00,,---,0.00,VWS V14.01,2013-01-28 03:57:00,
2013-01-27 23:02:00,30.5,24.5,30.44,ESE,120,14.0,14.0,78,0.00,,---,0.00,VWS V14.01,2013-01-28 04:02:00,
2013-01-27 23:07:00,30.5,24.5,30.44,ESE,107,10.0,15.0,78,0.00,,---,0.00,VWS V14.01,2013-01-28 04:07:00,
2013-01-27 23:12:00,30.4,24.4,30.44,ESE,118,9.0,15.0,78,0.00,,---,0.00,VWS V14.01,2013-01-28 04:12:00,
2013-01-27 23:17:00,30.4,24.7,30.43,ESE,116,8.0,15.0,79,0.00,,---,0.00,VWS V14.01,2013-01-28 04:17:00,
2013-01-27 23:22:00,30.3,24.6,30.43,SE,131,6.0,15.0,79,0.00,,---,0.00,VWS V14.01,2013-01-28 04:22:00,
2013-01-27 23:27:00,30.2,24.8,30.43,ESE,106,7.0,15.0,80,0.00,,---,0.00,VWS V14.01,2013-01-28 04:27:00,
2013-01-27 23:32:00,30.2,24.8,30.44,SE,136,7.0,12.0,80,0.00,,---,0.00,VWS V14.01,2013-01-28 04:32:00,
2013-01-27 23:37:00,30.1,24.7,30.43,SE,139,10.0,12.0,80,0.00,,---,0.00,VWS V14.01,2013-01-28 04:37:00,
2013-01-27 23:42:00,30.0,24.9,30.43,ESE,121,8.0,13.0,81,0.00,,---,0.00,VWS V14.01,2013-01-28 04:42:00,
2013-01-27 23:47:00,30.0,25.2,30.43,SE,136,8.0,13.0,82,0.00,,---,0.00,VWS V14.01,2013-01-28 04:47:00,
2013-01-27 23:52:00,30.0,25.2,30.43,SE,131,8.0,13.0,82,0.00,,---,0.00,VWS V14.01,2013-01-28 04:52:00,
2013-01-27 23:57:00,29.9,25.4,30.43,ESE,122,6.0,13.0,83,0.00,,---,0.00,VWS V14.01,2013-01-28 04:57:00,